sensor_id;sensor_type;location;lat;lon;timestamp;temperature;humidity
12622;DHT22;6376;48.182;-1.644;2024-03-29T00:01:46;13.00;82.90
12622;DHT22;6376;48.182;-1.644;2024-03-29T00:04:11;13.00;82.90
12622;DHT22;6376;48.182;-1.644;2024-03-29T00:06:37;13.00;83.00
12622;DHT22;6376;48.182;-1.644;2024-03-29T00:09:03;13.00;83.00
12622;DHT22;6376;48.182;-1.644;2024-03-29T00:11:28;12.90;83.00
12622;DHT22;6376;48.182;-1.644;2024-03-29T00:13:54;13.00;83.20
12622;DHT22;6376;48.182;-1.644;2024-03-29T00:16:20;12.90;83.10
12622;DHT22;6376;48.182;-1.644;2024-03-29T00:18:47;12.90;83.20
12622;DHT22;6376;48.182;-1.644;2024-03-29T00:21:13;12.90;83.10
12622;DHT22;6376;48.182;-1.644;2024-03-29T00:23:40;12.90;83.30
12622;DHT22;6376;48.182;-1.644;2024-03-29T00:26:05;12.90;83.40
12622;DHT22;6376;48.182;-1.644;2024-03-29T00:28:32;12.90;83.30
12622;DHT22;6376;48.182;-1.644;2024-03-29T00:30:58;12.90;83.30
12622;DHT22;6376;48.182;-1.644;2024-03-29T00:33:24;12.90;83.40
12622;DHT22;6376;48.182;-1.644;2024-03-29T00:35:49;12.90;83.50
12622;DHT22;6376;48.182;-1.644;2024-03-29T00:38:15;12.90;83.60
12622;DHT22;6376;48.182;-1.644;2024-03-29T00:40:41;12.90;83.60
12622;DHT22;6376;48.182;-1.644;2024-03-29T00:43:06;12.90;83.70
12622;DHT22;6376;48.182;-1.644;2024-03-29T00:45:33;12.80;83.60
12622;DHT22;6376;48.182;-1.644;2024-03-29T00:47:58;12.90;83.70
12622;DHT22;6376;48.182;-1.644;2024-03-29T00:50:24;12.80;83.80
12622;DHT22;6376;48.182;-1.644;2024-03-29T00:52:50;12.80;83.80
12622;DHT22;6376;48.182;-1.644;2024-03-29T00:55:16;12.80;83.80
12622;DHT22;6376;48.182;-1.644;2024-03-29T00:57:42;12.80;83.90
12622;DHT22;6376;48.182;-1.644;2024-03-29T01:00:08;12.80;83.80
12622;DHT22;6376;48.182;-1.644;2024-03-29T01:02:35;12.80;83.90
12622;DHT22;6376;48.182;-1.644;2024-03-29T01:05:01;12.80;83.90
12622;DHT22;6376;48.182;-1.644;2024-03-29T01:07:27;12.80;84.00
12622;DHT22;6376;48.182;-1.644;2024-03-29T01:09:52;12.80;84.10
12622;DHT22;6376;48.182;-1.644;2024-03-29T01:12:18;12.70;83.90
12622;DHT22;6376;48.182;-1.644;2024-03-29T01:14:45;12.70;84.20
12622;DHT22;6376;48.182;-1.644;2024-03-29T01:17:11;12.80;84.90
12622;DHT22;6376;48.182;-1.644;2024-03-29T01:19:37;12.70;84.20
12622;DHT22;6376;48.182;-1.644;2024-03-29T01:22:03;12.70;84.20
12622;DHT22;6376;48.182;-1.644;2024-03-29T01:24:29;12.80;84.40
12622;DHT22;6376;48.182;-1.644;2024-03-29T01:26:55;12.70;84.20
12622;DHT22;6376;48.182;-1.644;2024-03-29T01:29:21;12.70;84.20
12622;DHT22;6376;48.182;-1.644;2024-03-29T01:31:46;12.70;84.40
12622;DHT22;6376;48.182;-1.644;2024-03-29T01:34:12;12.70;84.30
12622;DHT22;6376;48.182;-1.644;2024-03-29T01:36:38;12.70;84.30
12622;DHT22;6376;48.182;-1.644;2024-03-29T01:39:03;12.70;84.40
12622;DHT22;6376;48.182;-1.644;2024-03-29T01:41:30;12.70;84.50
12622;DHT22;6376;48.182;-1.644;2024-03-29T01:43:55;12.70;84.50
12622;DHT22;6376;48.182;-1.644;2024-03-29T01:46:23;12.70;85.20
12622;DHT22;6376;48.182;-1.644;2024-03-29T01:48:52;12.70;84.50
12622;DHT22;6376;48.182;-1.644;2024-03-29T01:51:20;12.70;84.60
12622;DHT22;6376;48.182;-1.644;2024-03-29T01:53:47;12.60;84.50
12622;DHT22;6376;48.182;-1.644;2024-03-29T01:56:15;12.60;84.50
12622;DHT22;6376;48.182;-1.644;2024-03-29T01:58:42;12.60;84.60
12622;DHT22;6376;48.182;-1.644;2024-03-29T02:01:09;12.60;84.60
12622;DHT22;6376;48.182;-1.644;2024-03-29T02:03:35;12.60;84.70
12622;DHT22;6376;48.182;-1.644;2024-03-29T02:06:01;12.60;84.50
12622;DHT22;6376;48.182;-1.644;2024-03-29T02:08:29;12.60;84.80
12622;DHT22;6376;48.182;-1.644;2024-03-29T02:10:55;12.60;84.90
12622;DHT22;6376;48.182;-1.644;2024-03-29T02:13:21;12.60;84.80
12622;DHT22;6376;48.182;-1.644;2024-03-29T02:15:47;12.60;84.80
12622;DHT22;6376;48.182;-1.644;2024-03-29T02:18:12;12.50;84.80
12622;DHT22;6376;48.182;-1.644;2024-03-29T02:20:38;12.60;84.80
12622;DHT22;6376;48.182;-1.644;2024-03-29T02:23:10;12.50;84.80
12622;DHT22;6376;48.182;-1.644;2024-03-29T02:25:36;12.50;84.80
12622;DHT22;6376;48.182;-1.644;2024-03-29T02:28:03;12.50;84.80
12622;DHT22;6376;48.182;-1.644;2024-03-29T02:30:29;12.50;84.80
12622;DHT22;6376;48.182;-1.644;2024-03-29T02:33:01;12.50;85.00
12622;DHT22;6376;48.182;-1.644;2024-03-29T02:35:29;12.50;85.00
12622;DHT22;6376;48.182;-1.644;2024-03-29T02:37:55;12.50;85.00
12622;DHT22;6376;48.182;-1.644;2024-03-29T02:40:21;12.50;85.10
12622;DHT22;6376;48.182;-1.644;2024-03-29T02:42:50;12.50;85.00
12622;DHT22;6376;48.182;-1.644;2024-03-29T02:45:16;12.50;85.80
12622;DHT22;6376;48.182;-1.644;2024-03-29T02:47:43;12.50;85.10
12622;DHT22;6376;48.182;-1.644;2024-03-29T02:50:10;12.50;85.10
12622;DHT22;6376;48.182;-1.644;2024-03-29T02:52:36;12.40;85.00
12622;DHT22;6376;48.182;-1.644;2024-03-29T02:55:02;12.50;85.20
12622;DHT22;6376;48.182;-1.644;2024-03-29T02:57:28;12.40;85.20
12622;DHT22;6376;48.182;-1.644;2024-03-29T02:59:53;12.50;85.10
12622;DHT22;6376;48.182;-1.644;2024-03-29T03:02:19;12.50;85.30
12622;DHT22;6376;48.182;-1.644;2024-03-29T03:04:45;12.40;85.50
12622;DHT22;6376;48.182;-1.644;2024-03-29T03:07:10;12.40;85.20
12622;DHT22;6376;48.182;-1.644;2024-03-29T03:09:54;12.40;85.30
12622;DHT22;6376;48.182;-1.644;2024-03-29T03:12:38;12.40;85.30
12622;DHT22;6376;48.182;-1.644;2024-03-29T03:15:04;12.40;85.30
12622;DHT22;6376;48.182;-1.644;2024-03-29T03:17:31;12.40;85.30
12622;DHT22;6376;48.182;-1.644;2024-03-29T03:19:57;12.40;85.40
12622;DHT22;6376;48.182;-1.644;2024-03-29T03:22:22;12.40;85.40
12622;DHT22;6376;48.182;-1.644;2024-03-29T03:24:48;12.40;85.50
12622;DHT22;6376;48.182;-1.644;2024-03-29T03:27:14;12.40;85.50
12622;DHT22;6376;48.182;-1.644;2024-03-29T03:29:40;12.40;85.50
12622;DHT22;6376;48.182;-1.644;2024-03-29T03:32:06;12.40;85.50
12622;DHT22;6376;48.182;-1.644;2024-03-29T03:34:32;12.40;85.50
12622;DHT22;6376;48.182;-1.644;2024-03-29T03:36:58;12.30;85.50
12622;DHT22;6376;48.182;-1.644;2024-03-29T03:39:23;12.30;85.50
12622;DHT22;6376;48.182;-1.644;2024-03-29T03:41:50;12.30;85.60
12622;DHT22;6376;48.182;-1.644;2024-03-29T03:44:16;12.30;85.60
12622;DHT22;6376;48.182;-1.644;2024-03-29T03:46:41;12.30;85.60
12622;DHT22;6376;48.182;-1.644;2024-03-29T03:49:07;12.30;85.60
12622;DHT22;6376;48.182;-1.644;2024-03-29T03:51:32;12.30;85.60
12622;DHT22;6376;48.182;-1.644;2024-03-29T03:53:58;12.30;85.60
12622;DHT22;6376;48.182;-1.644;2024-03-29T03:56:24;12.30;85.70
12622;DHT22;6376;48.182;-1.644;2024-03-29T03:58:49;12.30;85.80
12622;DHT22;6376;48.182;-1.644;2024-03-29T04:01:15;12.30;85.70
12622;DHT22;6376;48.182;-1.644;2024-03-29T04:03:41;12.30;85.80
12622;DHT22;6376;48.182;-1.644;2024-03-29T04:06:06;12.30;85.80
12622;DHT22;6376;48.182;-1.644;2024-03-29T04:08:33;12.30;85.80
12622;DHT22;6376;48.182;-1.644;2024-03-29T04:11:03;12.30;85.80
12622;DHT22;6376;48.182;-1.644;2024-03-29T04:13:28;12.30;85.90
12622;DHT22;6376;48.182;-1.644;2024-03-29T04:16:01;12.20;85.90
12622;DHT22;6376;48.182;-1.644;2024-03-29T04:18:27;12.20;85.90
12622;DHT22;6376;48.182;-1.644;2024-03-29T04:20:57;12.30;86.10
12622;DHT22;6376;48.182;-1.644;2024-03-29T04:23:23;12.30;85.90
12622;DHT22;6376;48.182;-1.644;2024-03-29T04:25:56;12.20;85.90
12622;DHT22;6376;48.182;-1.644;2024-03-29T04:28:22;12.20;86.00
12622;DHT22;6376;48.182;-1.644;2024-03-29T04:33:17;12.20;86.00
12622;DHT22;6376;48.182;-1.644;2024-03-29T04:36:03;12.20;86.10
12622;DHT22;6376;48.182;-1.644;2024-03-29T04:38:30;12.20;86.10
12622;DHT22;6376;48.182;-1.644;2024-03-29T04:40:57;12.20;86.10
12622;DHT22;6376;48.182;-1.644;2024-03-29T04:43:25;12.20;86.10
12622;DHT22;6376;48.182;-1.644;2024-03-29T04:46:07;12.20;86.10
12622;DHT22;6376;48.182;-1.644;2024-03-29T04:48:35;12.20;86.20
12622;DHT22;6376;48.182;-1.644;2024-03-29T04:51:01;12.20;86.20
12622;DHT22;6376;48.182;-1.644;2024-03-29T04:53:26;12.20;86.20
12622;DHT22;6376;48.182;-1.644;2024-03-29T04:55:58;12.20;86.30
12622;DHT22;6376;48.182;-1.644;2024-03-29T04:58:25;12.20;86.30
12622;DHT22;6376;48.182;-1.644;2024-03-29T05:00:52;12.20;86.30
12622;DHT22;6376;48.182;-1.644;2024-03-29T05:03:18;12.20;86.30
12622;DHT22;6376;48.182;-1.644;2024-03-29T05:05:45;12.20;86.50
12622;DHT22;6376;48.182;-1.644;2024-03-29T05:08:11;12.20;86.50
12622;DHT22;6376;48.182;-1.644;2024-03-29T05:10:37;12.20;86.50
12622;DHT22;6376;48.182;-1.644;2024-03-29T05:13:03;12.20;86.50
12622;DHT22;6376;48.182;-1.644;2024-03-29T05:15:29;12.20;86.50
12622;DHT22;6376;48.182;-1.644;2024-03-29T05:17:54;12.20;86.50
12622;DHT22;6376;48.182;-1.644;2024-03-29T05:20:20;12.20;86.60
12622;DHT22;6376;48.182;-1.644;2024-03-29T05:22:46;12.20;86.60
12622;DHT22;6376;48.182;-1.644;2024-03-29T05:25:11;12.10;86.60
12622;DHT22;6376;48.182;-1.644;2024-03-29T05:27:37;12.10;86.60
12622;DHT22;6376;48.182;-1.644;2024-03-29T05:30:03;12.20;86.60
12622;DHT22;6376;48.182;-1.644;2024-03-29T05:32:30;12.20;86.70
12622;DHT22;6376;48.182;-1.644;2024-03-29T05:34:56;12.20;86.60
12622;DHT22;6376;48.182;-1.644;2024-03-29T05:37:22;12.20;86.70
12622;DHT22;6376;48.182;-1.644;2024-03-29T05:39:50;12.10;86.60
12622;DHT22;6376;48.182;-1.644;2024-03-29T05:42:27;12.10;86.80
12622;DHT22;6376;48.182;-1.644;2024-03-29T05:44:53;12.10;86.80
12622;DHT22;6376;48.182;-1.644;2024-03-29T05:47:19;12.10;86.80
12622;DHT22;6376;48.182;-1.644;2024-03-29T05:49:45;12.10;86.80
12622;DHT22;6376;48.182;-1.644;2024-03-29T05:52:11;12.10;86.80
12622;DHT22;6376;48.182;-1.644;2024-03-29T05:54:45;12.10;86.80
12622;DHT22;6376;48.182;-1.644;2024-03-29T05:57:11;12.20;86.90
12622;DHT22;6376;48.182;-1.644;2024-03-29T05:59:37;12.10;86.90
12622;DHT22;6376;48.182;-1.644;2024-03-29T06:02:04;12.20;86.90
12622;DHT22;6376;48.182;-1.644;2024-03-29T06:04:30;12.20;86.90
12622;DHT22;6376;48.182;-1.644;2024-03-29T06:06:59;12.10;86.90
12622;DHT22;6376;48.182;-1.644;2024-03-29T06:09:25;12.10;87.00
12622;DHT22;6376;48.182;-1.644;2024-03-29T06:11:51;12.10;87.00
12622;DHT22;6376;48.182;-1.644;2024-03-29T06:14:17;12.10;86.90
12622;DHT22;6376;48.182;-1.644;2024-03-29T06:17:01;12.20;87.00
12622;DHT22;6376;48.182;-1.644;2024-03-29T06:19:45;12.10;86.90
12622;DHT22;6376;48.182;-1.644;2024-03-29T06:22:10;12.10;87.10
12622;DHT22;6376;48.182;-1.644;2024-03-29T06:24:36;12.10;87.10
12622;DHT22;6376;48.182;-1.644;2024-03-29T06:27:04;12.10;87.10
12622;DHT22;6376;48.182;-1.644;2024-03-29T06:29:29;12.10;87.10
12622;DHT22;6376;48.182;-1.644;2024-03-29T06:31:55;12.10;87.00
12622;DHT22;6376;48.182;-1.644;2024-03-29T06:34:21;12.20;87.10
12622;DHT22;6376;48.182;-1.644;2024-03-29T06:36:47;12.10;87.00
12622;DHT22;6376;48.182;-1.644;2024-03-29T06:39:12;12.10;87.00
12622;DHT22;6376;48.182;-1.644;2024-03-29T06:41:38;12.10;87.10
12622;DHT22;6376;48.182;-1.644;2024-03-29T06:44:04;12.10;87.10
12622;DHT22;6376;48.182;-1.644;2024-03-29T06:46:29;12.20;87.30
12622;DHT22;6376;48.182;-1.644;2024-03-29T06:48:55;12.10;87.10
12622;DHT22;6376;48.182;-1.644;2024-03-29T06:51:21;12.10;87.10
12622;DHT22;6376;48.182;-1.644;2024-03-29T06:53:46;12.20;87.10
12622;DHT22;6376;48.182;-1.644;2024-03-29T06:56:12;12.20;87.10
12622;DHT22;6376;48.182;-1.644;2024-03-29T06:58:37;12.20;87.10
12622;DHT22;6376;48.182;-1.644;2024-03-29T07:01:03;12.20;87.20
12622;DHT22;6376;48.182;-1.644;2024-03-29T07:03:29;12.20;87.20
12622;DHT22;6376;48.182;-1.644;2024-03-29T07:05:54;12.20;87.20
12622;DHT22;6376;48.182;-1.644;2024-03-29T07:08:20;12.20;87.20
12622;DHT22;6376;48.182;-1.644;2024-03-29T07:10:46;12.20;87.50
12622;DHT22;6376;48.182;-1.644;2024-03-29T07:13:11;12.20;87.50
12622;DHT22;6376;48.182;-1.644;2024-03-29T07:15:37;12.20;87.70
12622;DHT22;6376;48.182;-1.644;2024-03-29T07:18:04;12.10;87.70
12622;DHT22;6376;48.182;-1.644;2024-03-29T07:20:29;12.20;87.70
12622;DHT22;6376;48.182;-1.644;2024-03-29T07:22:55;12.20;87.70
12622;DHT22;6376;48.182;-1.644;2024-03-29T07:25:21;12.20;87.60
12622;DHT22;6376;48.182;-1.644;2024-03-29T07:27:47;12.20;87.50
12622;DHT22;6376;48.182;-1.644;2024-03-29T07:30:16;12.20;87.40
12622;DHT22;6376;48.182;-1.644;2024-03-29T07:32:42;12.20;87.40
12622;DHT22;6376;48.182;-1.644;2024-03-29T07:35:08;12.20;87.40
12622;DHT22;6376;48.182;-1.644;2024-03-29T07:37:33;12.20;87.40
12622;DHT22;6376;48.182;-1.644;2024-03-29T07:39:59;12.20;87.50
12622;DHT22;6376;48.182;-1.644;2024-03-29T07:42:24;12.20;87.50
12622;DHT22;6376;48.182;-1.644;2024-03-29T07:44:50;12.20;87.50
12622;DHT22;6376;48.182;-1.644;2024-03-29T07:47:16;12.20;87.50
12622;DHT22;6376;48.182;-1.644;2024-03-29T07:49:42;12.20;87.50
12622;DHT22;6376;48.182;-1.644;2024-03-29T07:52:08;12.20;87.40
12622;DHT22;6376;48.182;-1.644;2024-03-29T07:54:34;12.20;87.30
12622;DHT22;6376;48.182;-1.644;2024-03-29T07:57:00;12.30;87.20
12622;DHT22;6376;48.182;-1.644;2024-03-29T07:59:27;12.30;87.10
12622;DHT22;6376;48.182;-1.644;2024-03-29T08:01:52;12.30;87.00
12622;DHT22;6376;48.182;-1.644;2024-03-29T08:04:20;12.30;87.00
12622;DHT22;6376;48.182;-1.644;2024-03-29T08:06:46;12.30;86.90
12622;DHT22;6376;48.182;-1.644;2024-03-29T08:09:11;12.30;86.90
12622;DHT22;6376;48.182;-1.644;2024-03-29T08:11:39;12.40;87.00
12622;DHT22;6376;48.182;-1.644;2024-03-29T08:14:05;12.40;86.70
12622;DHT22;6376;48.182;-1.644;2024-03-29T08:16:31;12.40;86.80
12622;DHT22;6376;48.182;-1.644;2024-03-29T08:18:57;12.30;86.80
12622;DHT22;6376;48.182;-1.644;2024-03-29T08:21:23;12.40;87.00
12622;DHT22;6376;48.182;-1.644;2024-03-29T08:23:48;12.70;86.70
12622;DHT22;6376;48.182;-1.644;2024-03-29T08:26:16;13.00;85.40
12622;DHT22;6376;48.182;-1.644;2024-03-29T08:28:44;13.20;84.00
12622;DHT22;6376;48.182;-1.644;2024-03-29T08:31:10;13.40;82.90
12622;DHT22;6376;48.182;-1.644;2024-03-29T08:33:36;13.60;81.80
12622;DHT22;6376;48.182;-1.644;2024-03-29T08:36:08;13.70;81.30
12622;DHT22;6376;48.182;-1.644;2024-03-29T08:38:36;13.80;80.80
12622;DHT22;6376;48.182;-1.644;2024-03-29T08:41:02;13.90;80.50
12622;DHT22;6376;48.182;-1.644;2024-03-29T08:43:28;13.80;80.60
12622;DHT22;6376;48.182;-1.644;2024-03-29T08:45:54;13.90;80.50
12622;DHT22;6376;48.182;-1.644;2024-03-29T08:48:19;13.80;80.60
12622;DHT22;6376;48.182;-1.644;2024-03-29T08:50:45;13.90;80.40
12622;DHT22;6376;48.182;-1.644;2024-03-29T08:53:12;14.10;79.50
12622;DHT22;6376;48.182;-1.644;2024-03-29T08:55:38;14.10;79.10
12622;DHT22;6376;48.182;-1.644;2024-03-29T08:58:05;13.80;80.20
12622;DHT22;6376;48.182;-1.644;2024-03-29T09:00:31;13.90;80.00
12622;DHT22;6376;48.182;-1.644;2024-03-29T09:03:00;14.00;79.60
12622;DHT22;6376;48.182;-1.644;2024-03-29T09:05:26;13.90;80.30
12622;DHT22;6376;48.182;-1.644;2024-03-29T09:07:53;13.50;81.70
12622;DHT22;6376;48.182;-1.644;2024-03-29T09:10:19;13.60;81.60
12622;DHT22;6376;48.182;-1.644;2024-03-29T09:12:45;14.00;80.10
12622;DHT22;6376;48.182;-1.644;2024-03-29T09:15:10;13.80;80.60
12622;DHT22;6376;48.182;-1.644;2024-03-29T09:17:44;13.40;82.10
12622;DHT22;6376;48.182;-1.644;2024-03-29T09:20:10;13.80;81.30
12622;DHT22;6376;48.182;-1.644;2024-03-29T09:22:36;14.70;78.00
12622;DHT22;6376;48.182;-1.644;2024-03-29T09:25:04;15.20;75.50
12622;DHT22;6376;48.182;-1.644;2024-03-29T09:27:29;15.20;75.70
12622;DHT22;6376;48.182;-1.644;2024-03-29T09:29:55;15.10;76.30
12622;DHT22;6376;48.182;-1.644;2024-03-29T09:32:22;15.20;76.30
12622;DHT22;6376;48.182;-1.644;2024-03-29T09:34:48;15.20;76.40
12622;DHT22;6376;48.182;-1.644;2024-03-29T09:37:14;14.60;78.40
12622;DHT22;6376;48.182;-1.644;2024-03-29T09:39:39;14.70;78.70
12622;DHT22;6376;48.182;-1.644;2024-03-29T09:42:06;14.90;78.40
12622;DHT22;6376;48.182;-1.644;2024-03-29T09:44:33;14.80;78.70
12622;DHT22;6376;48.182;-1.644;2024-03-29T09:47:04;14.50;79.20
12622;DHT22;6376;48.182;-1.644;2024-03-29T09:49:34;14.40;80.10
12622;DHT22;6376;48.182;-1.644;2024-03-29T09:52:00;14.40;80.00
12622;DHT22;6376;48.182;-1.644;2024-03-29T09:54:29;14.40;80.10
12622;DHT22;6376;48.182;-1.644;2024-03-29T09:56:58;14.40;80.80
12622;DHT22;6376;48.182;-1.644;2024-03-29T09:59:24;14.30;81.20
12622;DHT22;6376;48.182;-1.644;2024-03-29T10:01:53;14.20;80.10
12622;DHT22;6376;48.182;-1.644;2024-03-29T10:04:21;14.20;80.60
12622;DHT22;6376;48.182;-1.644;2024-03-29T10:06:48;14.30;80.40
12622;DHT22;6376;48.182;-1.644;2024-03-29T10:09:17;14.40;80.20
12622;DHT22;6376;48.182;-1.644;2024-03-29T10:11:43;14.50;79.40
12622;DHT22;6376;48.182;-1.644;2024-03-29T10:14:10;14.30;80.00
12622;DHT22;6376;48.182;-1.644;2024-03-29T10:16:35;14.20;80.20
12622;DHT22;6376;48.182;-1.644;2024-03-29T10:19:01;14.00;80.60
12622;DHT22;6376;48.182;-1.644;2024-03-29T10:21:27;13.80;81.10
12622;DHT22;6376;48.182;-1.644;2024-03-29T10:23:53;13.80;81.30
12622;DHT22;6376;48.182;-1.644;2024-03-29T10:26:19;13.70;81.60
12622;DHT22;6376;48.182;-1.644;2024-03-29T10:28:46;13.70;82.20
12622;DHT22;6376;48.182;-1.644;2024-03-29T10:31:12;13.70;82.50
12622;DHT22;6376;48.182;-1.644;2024-03-29T10:33:42;13.80;81.90
12622;DHT22;6376;48.182;-1.644;2024-03-29T10:36:08;13.90;81.90
12622;DHT22;6376;48.182;-1.644;2024-03-29T10:38:38;14.10;81.10
12622;DHT22;6376;48.182;-1.644;2024-03-29T10:41:04;14.30;80.20
12622;DHT22;6376;48.182;-1.644;2024-03-29T10:43:32;14.40;79.20
12622;DHT22;6376;48.182;-1.644;2024-03-29T10:46:00;14.50;79.20
12622;DHT22;6376;48.182;-1.644;2024-03-29T10:48:27;14.50;80.00
12622;DHT22;6376;48.182;-1.644;2024-03-29T10:50:54;14.50;79.70
12622;DHT22;6376;48.182;-1.644;2024-03-29T10:53:22;14.60;79.30
12622;DHT22;6376;48.182;-1.644;2024-03-29T10:55:51;14.60;79.00
12622;DHT22;6376;48.182;-1.644;2024-03-29T10:58:20;14.70;79.00
12622;DHT22;6376;48.182;-1.644;2024-03-29T11:00:53;14.80;77.80
12622;DHT22;6376;48.182;-1.644;2024-03-29T11:03:50;14.80;77.40
12622;DHT22;6376;48.182;-1.644;2024-03-29T11:06:21;14.90;77.80
12622;DHT22;6376;48.182;-1.644;2024-03-29T11:08:49;14.90;77.40
12622;DHT22;6376;48.182;-1.644;2024-03-29T11:11:17;15.00;77.80
12622;DHT22;6376;48.182;-1.644;2024-03-29T11:14:03;15.00;77.70
12622;DHT22;6376;48.182;-1.644;2024-03-29T11:16:29;15.00;77.40
12622;DHT22;6376;48.182;-1.644;2024-03-29T11:18:56;15.00;76.90
12622;DHT22;6376;48.182;-1.644;2024-03-29T11:21:22;15.10;77.50
12622;DHT22;6376;48.182;-1.644;2024-03-29T11:23:53;15.00;76.90
12622;DHT22;6376;48.182;-1.644;2024-03-29T11:26:19;15.00;77.20
12622;DHT22;6376;48.182;-1.644;2024-03-29T11:28:50;15.00;77.20
12622;DHT22;6376;48.182;-1.644;2024-03-29T11:31:16;15.00;76.90
12622;DHT22;6376;48.182;-1.644;2024-03-29T11:38:54;15.00;77.00
12622;DHT22;6376;48.182;-1.644;2024-03-29T11:41:26;15.00;77.10
12622;DHT22;6376;48.182;-1.644;2024-03-29T11:43:56;14.90;77.20
12622;DHT22;6376;48.182;-1.644;2024-03-29T11:46:22;15.00;77.40
12622;DHT22;6376;48.182;-1.644;2024-03-29T11:48:49;14.90;77.40
12622;DHT22;6376;48.182;-1.644;2024-03-29T11:51:18;14.90;77.00
12622;DHT22;6376;48.182;-1.644;2024-03-29T11:53:47;14.90;77.60
12622;DHT22;6376;48.182;-1.644;2024-03-29T11:56:12;14.80;77.50
12622;DHT22;6376;48.182;-1.644;2024-03-29T11:58:39;14.70;77.70
12622;DHT22;6376;48.182;-1.644;2024-03-29T12:01:05;14.70;77.80
12622;DHT22;6376;48.182;-1.644;2024-03-29T12:03:32;14.60;78.30
12622;DHT22;6376;48.182;-1.644;2024-03-29T12:05:59;14.60;78.10
12622;DHT22;6376;48.182;-1.644;2024-03-29T12:08:48;14.60;78.10
12622;DHT22;6376;48.182;-1.644;2024-03-29T12:11:15;14.50;78.30
12622;DHT22;6376;48.182;-1.644;2024-03-29T12:13:41;14.50;78.40
12622;DHT22;6376;48.182;-1.644;2024-03-29T12:16:07;14.40;78.50
12622;DHT22;6376;48.182;-1.644;2024-03-29T12:18:33;14.40;78.90
12622;DHT22;6376;48.182;-1.644;2024-03-29T12:21:00;14.40;78.60
12622;DHT22;6376;48.182;-1.644;2024-03-29T12:23:26;14.40;78.70
12622;DHT22;6376;48.182;-1.644;2024-03-29T12:25:54;14.40;78.70
12622;DHT22;6376;48.182;-1.644;2024-03-29T12:28:23;14.40;78.60
12622;DHT22;6376;48.182;-1.644;2024-03-29T12:30:49;14.40;78.90
12622;DHT22;6376;48.182;-1.644;2024-03-29T12:33:16;14.40;78.50
12622;DHT22;6376;48.182;-1.644;2024-03-29T12:35:46;14.40;78.30
12622;DHT22;6376;48.182;-1.644;2024-03-29T12:38:18;14.30;78.20
12622;DHT22;6376;48.182;-1.644;2024-03-29T12:40:48;14.30;78.30
12622;DHT22;6376;48.182;-1.644;2024-03-29T12:43:15;14.30;78.20
12622;DHT22;6376;48.182;-1.644;2024-03-29T12:45:45;14.30;78.30
12622;DHT22;6376;48.182;-1.644;2024-03-29T12:48:17;14.40;78.50
12622;DHT22;6376;48.182;-1.644;2024-03-29T12:50:44;14.40;78.50
12622;DHT22;6376;48.182;-1.644;2024-03-29T12:53:11;14.30;78.30
12622;DHT22;6376;48.182;-1.644;2024-03-29T12:55:43;14.30;78.60
12622;DHT22;6376;48.182;-1.644;2024-03-29T12:58:13;14.30;78.80
12622;DHT22;6376;48.182;-1.644;2024-03-29T13:00:39;14.20;78.90
12622;DHT22;6376;48.182;-1.644;2024-03-29T13:03:06;14.20;79.10
12622;DHT22;6376;48.182;-1.644;2024-03-29T13:05:32;14.20;79.10
12622;DHT22;6376;48.182;-1.644;2024-03-29T13:08:13;14.20;79.20
12622;DHT22;6376;48.182;-1.644;2024-03-29T13:10:44;14.20;79.20
12622;DHT22;6376;48.182;-1.644;2024-03-29T13:13:10;14.10;79.40
12622;DHT22;6376;48.182;-1.644;2024-03-29T13:15:38;14.10;79.50
12622;DHT22;6376;48.182;-1.644;2024-03-29T13:18:05;14.10;79.40
12622;DHT22;6376;48.182;-1.644;2024-03-29T13:20:32;14.10;79.60
12622;DHT22;6376;48.182;-1.644;2024-03-29T13:23:00;14.10;79.50
12622;DHT22;6376;48.182;-1.644;2024-03-29T13:25:26;14.10;80.40
12622;DHT22;6376;48.182;-1.644;2024-03-29T13:27:53;14.10;79.70
12622;DHT22;6376;48.182;-1.644;2024-03-29T13:30:21;14.10;79.60
12622;DHT22;6376;48.182;-1.644;2024-03-29T13:32:47;14.10;80.40
12622;DHT22;6376;48.182;-1.644;2024-03-29T13:35:14;14.10;79.70
12622;DHT22;6376;48.182;-1.644;2024-03-29T13:37:41;14.10;79.60
12622;DHT22;6376;48.182;-1.644;2024-03-29T13:40:14;14.10;79.40
12622;DHT22;6376;48.182;-1.644;2024-03-29T13:42:40;14.10;79.30
12622;DHT22;6376;48.182;-1.644;2024-03-29T13:45:07;14.10;79.20
12622;DHT22;6376;48.182;-1.644;2024-03-29T13:47:39;14.10;79.20
12622;DHT22;6376;48.182;-1.644;2024-03-29T13:50:05;14.10;79.10
12622;DHT22;6376;48.182;-1.644;2024-03-29T13:52:31;14.20;79.20
12622;DHT22;6376;48.182;-1.644;2024-03-29T13:54:58;14.20;79.20
12622;DHT22;6376;48.182;-1.644;2024-03-29T13:57:23;14.20;79.20
12622;DHT22;6376;48.182;-1.644;2024-03-29T13:59:49;14.20;79.20
12622;DHT22;6376;48.182;-1.644;2024-03-29T14:02:19;14.10;78.90
12622;DHT22;6376;48.182;-1.644;2024-03-29T14:04:46;14.10;78.90
12622;DHT22;6376;48.182;-1.644;2024-03-29T14:07:13;14.10;79.00
12622;DHT22;6376;48.182;-1.644;2024-03-29T14:09:43;14.20;79.20
12622;DHT22;6376;48.182;-1.644;2024-03-29T14:12:09;14.20;79.00
12622;DHT22;6376;48.182;-1.644;2024-03-29T14:14:35;14.20;78.90
12622;DHT22;6376;48.182;-1.644;2024-03-29T14:17:01;14.20;79.10
12622;DHT22;6376;48.182;-1.644;2024-03-29T14:19:35;14.20;79.20
12622;DHT22;6376;48.182;-1.644;2024-03-29T14:22:02;14.20;79.20
12622;DHT22;6376;48.182;-1.644;2024-03-29T14:24:28;14.20;79.20
12622;DHT22;6376;48.182;-1.644;2024-03-29T14:26:58;14.20;79.40
12622;DHT22;6376;48.182;-1.644;2024-03-29T14:29:24;14.20;79.10
12622;DHT22;6376;48.182;-1.644;2024-03-29T14:31:50;14.10;79.20
12622;DHT22;6376;48.182;-1.644;2024-03-29T14:34:17;14.10;79.20
12622;DHT22;6376;48.182;-1.644;2024-03-29T14:36:45;14.10;79.30
12622;DHT22;6376;48.182;-1.644;2024-03-29T14:39:11;14.10;79.50
12622;DHT22;6376;48.182;-1.644;2024-03-29T14:41:41;14.20;79.50
12622;DHT22;6376;48.182;-1.644;2024-03-29T14:44:07;14.20;79.40
12622;DHT22;6376;48.182;-1.644;2024-03-29T14:46:33;14.10;79.50
12622;DHT22;6376;48.182;-1.644;2024-03-29T14:49:00;14.20;79.50
12622;DHT22;6376;48.182;-1.644;2024-03-29T14:51:26;14.20;79.70
12622;DHT22;6376;48.182;-1.644;2024-03-29T14:53:53;14.20;79.70
12622;DHT22;6376;48.182;-1.644;2024-03-29T14:56:19;14.20;79.80
12622;DHT22;6376;48.182;-1.644;2024-03-29T14:58:45;14.20;80.00
12622;DHT22;6376;48.182;-1.644;2024-03-29T15:01:12;14.20;79.80
12622;DHT22;6376;48.182;-1.644;2024-03-29T15:03:37;14.10;79.80
12622;DHT22;6376;48.182;-1.644;2024-03-29T15:06:03;14.20;79.80
12622;DHT22;6376;48.182;-1.644;2024-03-29T15:08:29;14.20;79.80
12622;DHT22;6376;48.182;-1.644;2024-03-29T15:11:02;14.20;80.00
12622;DHT22;6376;48.182;-1.644;2024-03-29T15:13:28;14.10;79.70
12622;DHT22;6376;48.182;-1.644;2024-03-29T15:15:59;14.10;79.60
12622;DHT22;6376;48.182;-1.644;2024-03-29T15:18:25;14.10;79.70
12622;DHT22;6376;48.182;-1.644;2024-03-29T15:20:58;14.10;79.60
12622;DHT22;6376;48.182;-1.644;2024-03-29T15:23:25;14.10;79.40
12622;DHT22;6376;48.182;-1.644;2024-03-29T15:25:55;14.10;79.50
12622;DHT22;6376;48.182;-1.644;2024-03-29T15:28:22;14.10;79.40
12622;DHT22;6376;48.182;-1.644;2024-03-29T15:31:13;14.20;79.40
12622;DHT22;6376;48.182;-1.644;2024-03-29T15:33:45;14.20;79.20
12622;DHT22;6376;48.182;-1.644;2024-03-29T15:36:11;14.20;79.30
12622;DHT22;6376;48.182;-1.644;2024-03-29T15:38:38;14.10;79.40